Time;durP1;ratioP1;P1;durP2;ratioP2;P2;SDS_P1;SDS_P2;PMS_P1;PMS_P2;Temp;Humidity;BMP_temperature;BMP_pressure;BME280_temperature;BME280_humidity;BME280_pressure;Samples;Min_cycle;Max_cycle;Signal;HPM_P1;HPM_P2
2022/04/13 00:02:10;;;;;;;5.40;4.80;;;11.20;54.20;;;;;;5033669;28;20475;-60
2022/04/13 00:04:37;;;;;;;9.20;4.80;;;11.10;54.10;;;;;;5033049;28;20448;-60
2022/04/13 00:07:04;;;;;;;5.60;5.00;;;11.10;54.30;;;;;;5033357;28;20467;-60
2022/04/13 00:09:31;;;;;;;5.80;4.53;;;11.10;54.30;;;;;;5033314;28;20465;-61
2022/04/13 00:11:59;;;;;;;6.20;4.67;;;11.10;54.50;;;;;;5033025;28;20491;-60
2022/04/13 00:14:27;;;;;;;4.87;4.37;;;11.10;54.60;;;;;;5033279;28;20481;-60
2022/04/13 00:16:54;;;;;;;5.40;4.53;;;11.00;54.70;;;;;;5033242;28;20460;-60
2022/04/13 00:19:23;;;;;;;7.27;4.80;;;11.00;55.00;;;;;;5032967;28;20489;-60
2022/04/13 00:21:51;;;;;;;7.70;5.13;;;11.00;55.20;;;;;;5033054;28;20498;-61
2022/04/13 00:24:18;;;;;;;6.10;4.97;;;10.90;55.30;;;;;;5033996;28;20448;-61
2022/04/13 00:26:45;;;;;;;7.87;4.33;;;10.90;55.50;;;;;;5037368;28;20441;-61
2022/04/13 00:29:12;;;;;;;6.90;4.40;;;10.90;55.60;;;;;;5036956;28;20837;-60
2022/04/13 00:31:39;;;;;;;6.33;5.00;;;10.90;55.80;;;;;;5036973;28;20452;-61
2022/04/13 00:34:06;;;;;;;6.03;5.10;;;10.80;55.90;;;;;;5036724;28;20507;-61
2022/04/13 00:36:35;;;;;;;5.73;4.50;;;10.80;56.00;;;;;;5037137;28;20810;-60
2022/04/13 00:39:02;;;;;;;5.80;4.37;;;10.80;56.20;;;;;;5037222;28;20477;-61
2022/04/13 00:41:29;;;;;;;6.17;4.60;;;10.70;56.30;;;;;;5037312;28;20444;-61
2022/04/13 00:44:04;;;;;;;6.97;4.47;;;10.70;56.50;;;;;;5037071;28;20472;-61
2022/04/13 00:46:32;;;;;;;8.23;4.77;;;10.70;56.70;;;;;;5036935;28;20456;-61
2022/04/13 00:49:00;;;;;;;6.97;5.30;;;10.60;56.90;;;;;;5037084;28;20807;-60
2022/04/13 00:51:27;;;;;;;5.55;4.97;;;10.60;57.20;;;;;;5038071;28;20760;-61
2022/04/13 00:53:58;;;;;;;6.47;5.10;;;10.60;57.40;;;;;;5036612;28;20202;-61
2022/04/13 00:56:27;;;;;;;5.80;4.60;;;10.60;57.70;;;;;;5036941;28;20460;-59
2022/04/13 00:58:56;;;;;;;7.47;5.77;;;10.50;58.00;;;;;;5036741;28;20559;-61
2022/04/13 01:01:25;;;;;;;7.30;5.63;;;10.50;58.30;;;;;;5036522;28;20445;-61
2022/04/13 01:03:53;;;;;;;7.60;5.70;;;10.50;58.70;;;;;;5036869;28;20206;-60
2022/04/13 01:06:21;;;;;;;7.72;5.50;;;10.40;58.90;;;;;;5036466;28;20948;-60
2022/04/13 01:08:50;;;;;;;9.27;5.80;;;10.40;59.20;;;;;;5036496;28;20702;-60
2022/04/13 01:11:19;;;;;;;7.80;6.27;;;10.30;59.50;;;;;;5036468;28;20445;-60
2022/04/13 01:13:46;;;;;;;7.63;6.80;;;10.30;60.00;;;;;;5036593;28;20532;-59
2022/04/13 01:16:13;;;;;;;6.38;5.72;;;10.30;60.30;;;;;;5036809;28;20464;-60
2022/04/13 01:18:41;;;;;;;5.67;5.03;;;10.20;60.70;;;;;;5036737;28;20230;-60
2022/04/13 01:21:12;;;;;;;7.00;6.30;;;10.20;61.10;;;;;;5038422;28;20765;-60
2022/04/13 01:23:41;;;;;;;6.65;5.97;;;10.20;61.50;;;;;;5037091;28;20187;-60
2022/04/13 01:26:11;;;;;;;8.13;5.60;;;10.20;62.00;;;;;;5036552;28;20205;-60
2022/04/13 01:28:38;;;;;;;7.40;5.90;;;10.20;62.40;;;;;;5036292;28;20499;-60
2022/04/13 01:31:05;;;;;;;7.43;5.30;;;10.10;62.80;;;;;;5035840;28;20448;-60
2022/04/13 01:33:33;;;;;;;9.75;6.30;;;10.10;63.40;;;;;;5036197;28;20213;-60
2022/04/13 01:36:01;;;;;;;8.10;5.10;;;10.10;63.80;;;;;;5035641;28;20222;-60
2022/04/13 01:38:29;;;;;;;7.15;6.45;;;10.00;64.20;;;;;;5036001;28;20519;-61
2022/04/13 01:40:58;;;;;;;6.53;5.90;;;10.00;64.70;;;;;;5036493;28;20293;-61
2022/04/13 01:43:25;;;;;;;8.32;5.28;;;10.00;65.20;;;;;;5035656;28;20705;-61
2022/04/13 01:45:53;;;;;;;9.10;5.35;;;9.90;66.50;;;;;;5036097;28;20202;-60
2022/04/13 01:48:20;;;;;;;6.30;5.63;;;9.90;67.10;;;;;;5035357;28;20226;-61
2022/04/13 01:50:47;;;;;;;9.35;6.43;;;9.90;67.60;;;;;;5035656;28;20210;-60
2022/04/13 01:53:14;;;;;;;7.00;5.80;;;9.80;68.00;;;;;;5035740;28;20237;-60
2022/04/13 01:55:41;;;;;;;7.57;6.47;;;9.80;68.50;;;;;;5035593;28;20250;-60
2022/04/13 01:58:10;;;;;;;6.93;6.22;;;9.80;69.00;;;;;;5035826;28;20207;-60
2022/04/13 02:00:37;;;;;;;6.18;5.47;;;9.80;69.40;;;;;;5035282;28;20202;-60
2022/04/13 02:03:04;;;;;;;6.65;5.90;;;9.80;69.70;;;;;;5035533;28;20210;-60
2022/04/13 02:05:32;;;;;;;10.07;6.75;;;9.70;70.20;;;;;;5035551;28;20194;-60
2022/04/13 02:07:59;;;;;;;8.38;7.00;;;9.70;70.60;;;;;;5035177;28;20206;-62
2022/04/13 02:10:26;;;;;;;9.43;6.50;;;9.70;71.00;;;;;;5035398;28;20210;-58
2022/04/13 02:12:53;;;;;;;9.23;6.65;;;9.60;71.30;;;;;;5035468;28;20214;-60
2022/04/13 02:15:21;;;;;;;7.72;6.90;;;9.60;71.50;;;;;;5035509;28;20242;-61
2022/04/13 02:17:48;;;;;;;7.63;5.72;;;9.60;71.90;;;;;;5035156;28;20225;-60
2022/04/13 02:20:15;;;;;;;7.70;6.10;;;9.60;72.20;;;;;;5035166;28;20714;-61
2022/04/13 02:22:46;;;;;;;8.43;6.78;;;9.60;72.70;;;;;;5034747;28;20202;-61
2022/04/13 02:25:14;;;;;;;9.60;6.68;;;9.60;73.00;;;;;;5035048;28;20195;-61
2022/04/13 02:27:42;;;;;;;8.65;6.72;;;9.60;73.20;;;;;;5034678;28;20681;-61
2022/04/13 02:30:09;;;;;;;9.68;6.72;;;9.60;73.50;;;;;;5034982;28;20237;-61
2022/04/13 02:32:39;;;;;;;7.32;6.38;;;9.60;73.60;;;;;;5034994;28;20209;-60
2022/04/13 02:35:07;;;;;;;8.80;6.50;;;9.60;73.80;;;;;;5035032;28;20226;-60
2022/04/13 02:37:34;;;;;;;7.70;6.60;;;9.60;74.10;;;;;;5034963;28;20444;-60
2022/04/13 02:40:01;;;;;;;7.00;5.95;;;9.60;74.40;;;;;;5035049;28;20222;-60
2022/04/13 02:42:32;;;;;;;9.88;6.78;;;9.60;74.60;;;;;;5034790;28;20206;-59
2022/04/13 02:45:00;;;;;;;8.90;6.82;;;9.60;74.60;;;;;;5035075;28;20185;-60
2022/04/13 02:47:27;;;;;;;7.93;6.78;;;9.60;74.70;;;;;;5034867;28;20206;-60
2022/04/13 02:49:56;;;;;;;7.72;5.95;;;9.60;74.70;;;;;;5034308;28;20227;-60
2022/04/13 02:52:23;;;;;;;10.50;7.00;;;9.60;74.80;;;;;;5035017;28;20202;-60
2022/04/13 02:54:50;;;;;;;6.28;5.63;;;9.60;74.90;;;;;;5035105;28;20225;-60
2022/04/13 02:57:17;;;;;;;6.95;6.25;;;9.60;75.10;;;;;;5034488;28;20682;-60
2022/04/13 02:59:46;;;;;;;7.88;6.47;;;9.60;75.30;;;;;;5034677;28;20234;-60
2022/04/13 03:02:14;;;;;;;7.63;6.03;;;9.60;75.60;;;;;;5034201;28;20297;-60
2022/04/13 03:04:42;;;;;;;7.72;6.40;;;9.60;75.80;;;;;;5034303;28;20210;-61
2022/04/13 03:07:11;;;;;;;7.80;5.68;;;9.60;75.90;;;;;;5034006;28;20214;-60
2022/04/13 03:09:38;;;;;;;8.00;5.40;;;9.60;75.90;;;;;;5034038;28;20606;-60
2022/04/13 03:12:07;;;;;;;7.53;5.93;;;9.60;75.90;;;;;;5035356;28;20230;-61
2022/04/13 03:14:34;;;;;;;6.75;5.97;;;9.50;75.90;;;;;;5033850;28;20213;-61
2022/04/13 03:17:01;;;;;;;6.85;5.15;;;9.60;75.90;;;;;;5033803;28;20670;-60
2022/04/13 03:19:28;;;;;;;10.18;6.07;;;9.60;75.80;;;;;;5056948;22;20225;-54
2022/04/13 03:21:55;;;;;;;6.15;4.75;;;9.60;75.40;;;;;;5054518;28;20201;-55
2022/04/13 03:24:24;;;;;;;7.55;5.80;;;9.60;75.00;;;;;;5054812;28;20198;-54
2022/04/13 03:26:52;;;;;;;5.50;4.80;;;9.70;74.80;;;;;;5055116;28;20194;-53
2022/04/13 03:29:19;;;;;;;6.43;5.50;;;9.70;74.30;;;;;;5054572;28;20225;-53
2022/04/13 03:31:46;;;;;;;8.75;6.60;;;9.70;73.70;;;;;;5054217;28;20213;-53
2022/04/13 03:34:13;;;;;;;7.55;5.75;;;9.70;73.50;;;;;;5054304;28;20208;-53
2022/04/13 03:36:40;;;;;;;5.22;4.70;;;9.70;73.70;;;;;;5053920;28;20244;-53
2022/04/13 03:39:07;;;;;;;6.93;5.07;;;9.70;73.60;;;;;;5053399;28;20240;-54
2022/04/13 03:41:37;;;;;;;5.63;5.07;;;9.70;73.60;;;;;;5053671;28;20673;-53
2022/04/13 03:44:05;;;;;;;5.25;4.70;;;9.70;73.90;;;;;;5053900;28;20572;-55
2022/04/13 03:46:32;;;;;;;7.35;4.97;;;9.70;73.90;;;;;;5053193;28;20193;-54
2022/04/13 03:48:59;;;;;;;7.50;4.90;;;9.70;74.00;;;;;;5053334;28;20225;-54
2022/04/13 03:51:26;;;;;;;5.70;5.20;;;9.70;74.00;;;;;;5053613;28;20205;-54
2022/04/13 03:53:53;;;;;;;5.43;4.38;;;9.70;73.90;;;;;;5053396;28;20477;-54
2022/04/13 03:56:20;;;;;;;7.55;5.47;;;9.70;73.70;;;;;;5053174;28;20222;-54
2022/04/13 03:58:49;;;;;;;10.00;6.05;;;9.70;73.40;;;;;;5053082;28;20225;-54
2022/04/13 04:01:16;;;;;;;7.45;5.60;;;9.70;73.20;;;;;;5052518;28;20201;-54
2022/04/13 04:03:43;;;;;;;8.50;5.07;;;9.70;73.40;;;;;;5052909;28;20674;-54
2022/04/13 04:09:35;;;;;;;8.90;5.80;;;9.70;73.10;;;;;;5117300;27;1399066;-53
2022/04/13 04:12:03;;;;;;;9.10;5.87;;;9.80;73.30;;;;;;5152356;27;20439;-53
2022/04/13 04:14:30;;;;;;;5.63;5.07;;;9.80;73.40;;;;;;5151963;27;20436;-53
2022/04/13 04:16:57;;;;;;;5.78;5.18;;;9.80;73.40;;;;;;5151994;27;20427;-53
2022/04/13 04:19:24;;;;;;;5.90;4.90;;;9.80;73.60;;;;;;5151864;27;20229;-53
2022/04/13 04:21:51;;;;;;;6.37;5.07;;;9.80;73.70;;;;;;5151935;27;20195;-53
2022/04/13 04:24:18;;;;;;;5.55;4.72;;;9.80;73.70;;;;;;5151884;27;20436;-53
2022/04/13 04:26:47;;;;;;;6.67;4.93;;;9.80;73.50;;;;;;5152026;27;20293;-53
2022/04/13 04:29:14;;;;;;;8.82;4.97;;;9.90;73.60;;;;;;5151438;27;21072;-53
2022/04/13 04:31:54;;;;;;;5.43;4.93;;;9.90;73.40;;;;;;5151634;27;20210;-53
2022/04/13 04:34:23;;;;;;;10.30;5.47;;;9.90;73.40;;;;;;5152101;27;20188;-52
2022/04/13 04:36:50;;;;;;;6.18;4.68;;;9.90;73.40;;;;;;5152108;27;20450;-53
2022/04/13 04:39:18;;;;;;;8.93;4.20;;;9.90;73.50;;;;;;5151784;27;20223;-53
2022/04/13 04:41:47;;;;;;;5.05;4.55;;;9.90;73.40;;;;;;5152028;27;20444;-54
2022/04/13 04:44:14;;;;;;;7.15;4.85;;;9.90;73.40;;;;;;5151394;27;20653;-54
2022/04/13 04:46:41;;;;;;;9.70;4.23;;;10.00;72.20;;;;;;5151684;27;20229;-53
2022/04/13 04:49:08;;;;;;;4.47;4.07;;;10.10;71.90;;;;;;5151192;27;20479;-53
2022/04/13 04:51:36;;;;;;;4.57;4.17;;;10.10;71.40;;;;;;5151305;27;20440;-53
2022/04/13 04:54:04;;;;;;;8.60;3.97;;;10.20;70.80;;;;;;5151513;27;20444;-53
2022/04/13 04:56:31;;;;;;;5.77;4.17;;;10.30;70.40;;;;;;5151105;27;20201;-53
2022/04/13 04:59:00;;;;;;;3.97;3.67;;;10.40;70.00;;;;;;5151259;27;20826;-53
2022/04/13 05:01:27;;;;;;;5.00;4.27;;;10.40;69.50;;;;;;5151273;27;20451;-53
2022/04/13 05:03:54;;;;;;;4.37;3.83;;;10.50;69.10;;;;;;5151017;27;20447;-53
2022/04/13 05:06:23;;;;;;;5.17;3.90;;;10.60;68.70;;;;;;5150832;27;20447;-53
2022/04/13 05:08:51;;;;;;;5.90;4.03;;;10.70;68.30;;;;;;5150629;27;20479;-53
2022/04/13 05:11:19;;;;;;;4.97;4.47;;;10.80;67.80;;;;;;5151606;27;20484;-53
2022/04/13 05:13:46;;;;;;;10.40;4.33;;;10.90;67.20;;;;;;5150712;27;20526;-53
2022/04/13 05:16:15;;;;;;;5.40;4.07;;;11.00;66.60;;;;;;5150940;27;20467;-53
2022/04/13 05:18:45;;;;;;;4.83;4.03;;;11.10;66.10;;;;;;5150479;27;20462;-53
2022/04/13 05:21:13;;;;;;;6.40;4.33;;;11.20;65.60;;;;;;5136176;27;20433;-53
2022/04/13 05:23:41;;;;;;;6.83;4.13;;;11.30;65.40;;;;;;5136876;27;20447;-54
2022/04/13 05:26:10;;;;;;;6.63;4.10;;;11.40;64.90;;;;;;5136805;27;20440;-54
2022/04/13 05:28:38;;;;;;;4.67;4.00;;;11.50;64.40;;;;;;5136480;27;20515;-54
2022/04/13 05:31:05;;;;;;;6.87;5.10;;;11.60;64.00;;;;;;5136837;27;20436;-54
2022/04/13 05:33:33;;;;;;;4.73;4.20;;;11.60;63.50;;;;;;5136429;27;20936;-54
2022/04/13 05:36:00;;;;;;;5.70;4.57;;;11.70;63.00;;;;;;5136601;27;20440;-54
2022/04/13 05:38:27;;;;;;;4.00;3.60;;;11.80;62.30;;;;;;5136740;27;20437;-55
2022/04/13 05:40:54;;;;;;;7.43;4.63;;;11.90;61.50;;;;;;5136407;27;20444;-54
2022/04/13 05:43:22;;;;;;;4.27;3.83;;;12.00;61.50;;;;;;5127331;27;20441;-54
2022/04/13 05:45:49;;;;;;;5.30;4.57;;;12.10;60.50;;;;;;5129714;27;20437;-55
2022/04/13 05:48:17;;;;;;;5.80;4.10;;;12.30;60.40;;;;;;5136397;27;20468;-55
2022/04/13 05:50:45;;;;;;;7.30;4.13;;;12.40;59.80;;;;;;5135943;27;20551;-55
2022/04/13 05:53:13;;;;;;;7.57;4.73;;;12.50;59.30;;;;;;5136082;27;20440;-54
2022/04/13 05:55:40;;;;;;;5.10;4.17;;;12.50;58.70;;;;;;5135732;27;20451;-55
2022/04/13 05:58:07;;;;;;;4.23;3.80;;;12.60;58.10;;;;;;5136198;27;20441;-54
2022/04/13 06:00:34;;;;;;;6.83;4.73;;;12.70;57.60;;;;;;5135892;27;20464;-54
2022/04/13 06:03:02;;;;;;;6.70;4.23;;;12.80;57.10;;;;;;5135454;27;20444;-56
2022/04/13 06:05:29;;;;;;;7.47;4.37;;;12.90;56.40;;;;;;5135784;27;20460;-55
2022/04/13 06:07:58;;;;;;;6.40;4.00;;;13.00;55.80;;;;;;5135004;27;20454;-55
2022/04/13 06:10:25;;;;;;;5.70;3.67;;;13.00;55.30;;;;;;5136772;27;20472;-55
2022/04/13 06:12:52;;;;;;;8.70;4.33;;;13.10;55.00;;;;;;5135914;27;20451;-55
2022/04/13 06:15:19;;;;;;;4.80;4.30;;;13.20;54.90;;;;;;5135255;27;20814;-56
2022/04/13 06:17:46;;;;;;;4.40;3.80;;;13.30;54.60;;;;;;5135228;27;20460;-53
2022/04/13 06:20:14;;;;;;;4.50;4.10;;;13.50;54.40;;;;;;5136237;27;20475;-54
2022/04/13 06:22:43;;;;;;;9.40;4.20;;;13.60;54.20;;;;;;5136081;27;20801;-55
2022/04/13 06:25:13;;;;;;;4.70;4.00;;;13.70;54.00;;;;;;5133792;27;20433;-54
2022/04/13 06:27:41;;;;;;;5.00;3.87;;;13.80;53.50;;;;;;5134533;27;20211;-53
2022/04/13 06:30:10;;;;;;;7.33;3.90;;;13.90;53.30;;;;;;5135534;27;20573;-55
2022/04/13 06:32:38;;;;;;;6.23;4.43;;;14.10;53.30;;;;;;5134582;27;20502;-53
2022/04/13 06:35:07;;;;;;;7.73;4.50;;;14.20;53.00;;;;;;5134695;27;20954;-55
2022/04/13 06:37:36;;;;;;;5.47;4.53;;;14.30;52.80;;;;;;5135356;27;20788;-52
2022/04/13 06:40:05;;;;;;;4.73;3.90;;;14.40;52.60;;;;;;5135277;27;20465;-53
2022/04/13 06:42:35;;;;;;;5.87;3.70;;;14.60;52.60;;;;;;5135121;27;20444;-54
2022/04/13 06:45:02;;;;;;;6.13;4.00;;;14.60;52.20;;;;;;5133999;27;20786;-54
2022/04/13 06:47:29;;;;;;;4.60;3.87;;;14.70;52.00;;;;;;5135479;27;20816;-53
2022/04/13 06:49:57;;;;;;;4.73;4.07;;;14.70;51.60;;;;;;5135829;27;20476;-54
2022/04/13 06:52:24;;;;;;;6.23;4.17;;;14.70;51.40;;;;;;5135340;27;20813;-55
2022/04/13 06:54:51;;;;;;;4.67;3.57;;;14.80;51.40;;;;;;5134630;27;20445;-54
2022/04/13 06:57:18;;;;;;;7.10;4.10;;;14.80;51.30;;;;;;5135131;27;20445;-54
2022/04/13 06:59:46;;;;;;;5.10;4.40;;;14.80;51.00;;;;;;5135310;27;20467;-54
2022/04/13 07:02:13;;;;;;;6.90;4.20;;;14.80;51.00;;;;;;5134480;27;20940;-54
2022/04/13 07:04:41;;;;;;;4.60;3.53;;;14.80;50.90;;;;;;5135381;27;20484;-54
2022/04/13 07:07:08;;;;;;;5.50;4.20;;;14.90;50.90;;;;;;5137023;27;20527;-55
2022/04/13 07:09:35;;;;;;;7.37;4.93;;;14.90;50.70;;;;;;5135288;27;20507;-55
2022/04/13 07:12:03;;;;;;;5.97;4.20;;;15.00;50.70;;;;;;5135798;27;20482;-54
2022/04/13 07:14:30;;;;;;;4.30;3.17;;;15.10;50.60;;;;;;5134993;27;20467;-54
2022/04/13 07:16:58;;;;;;;4.20;3.40;;;15.20;50.60;;;;;;5134132;27;20468;-55
2022/04/13 07:19:25;;;;;;;4.97;3.30;;;15.40;50.40;;;;;;5134451;27;20457;-54
2022/04/13 07:21:52;;;;;;;4.07;3.30;;;15.60;50.20;;;;;;5134549;27;20444;-55
2022/04/13 07:24:19;;;;;;;5.10;3.23;;;15.70;49.90;;;;;;5133638;27;20452;-55
2022/04/13 07:26:46;;;;;;;5.13;4.07;;;15.90;49.70;;;;;;5134554;27;20440;-52
2022/04/13 07:29:13;;;;;;;5.30;3.50;;;16.00;49.40;;;;;;5134367;27;20507;-53
2022/04/13 07:31:40;;;;;;;5.20;3.63;;;16.20;49.00;;;;;;5127207;27;20452;-54
2022/04/13 07:34:10;;;;;;;4.40;3.90;;;16.30;48.60;;;;;;5113598;28;20555;-55
2022/04/13 07:36:37;;;;;;;4.73;3.57;;;16.50;48.40;;;;;;5113372;28;20449;-55
2022/04/13 07:39:04;;;;;;;5.70;3.20;;;16.60;48.00;;;;;;5114006;28;20465;-54
2022/04/13 07:41:31;;;;;;;5.60;3.10;;;16.80;48.30;;;;;;5114156;28;20446;-57
2022/04/13 07:44:00;;;;;;;5.13;3.80;;;16.80;47.00;;;;;;5114061;28;20453;-54
2022/04/13 07:46:29;;;;;;;6.73;3.17;;;16.80;46.90;;;;;;5129468;27;20472;-54
2022/04/13 07:48:56;;;;;;;4.50;3.43;;;17.00;46.90;;;;;;5135429;27;20484;-55
2022/04/13 07:51:24;;;;;;;8.30;4.27;;;17.10;46.70;;;;;;5135350;27;20445;-53
2022/04/13 07:53:51;;;;;;;4.43;3.50;;;17.30;46.60;;;;;;5135450;27;20444;-54
2022/04/13 07:56:18;;;;;;;4.90;4.07;;;17.40;46.10;;;;;;5135457;27;20448;-55
2022/04/13 07:58:45;;;;;;;8.13;4.47;;;17.50;45.70;;;;;;5135823;27;20443;-55
2022/04/13 08:01:14;;;;;;;7.93;3.47;;;17.70;45.60;;;;;;5135512;27;20455;-54
2022/04/13 08:03:41;;;;;;;6.30;3.50;;;17.90;45.40;;;;;;5134257;27;20520;-56
2022/04/13 08:06:10;;;;;;;4.03;3.13;;;18.10;45.00;;;;;;5130006;27;20452;-54
2022/04/13 08:08:39;;;;;;;8.90;3.87;;;18.30;44.80;;;;;;5113252;28;20465;-55
2022/04/13 08:11:07;;;;;;;4.57;3.60;;;18.40;44.80;;;;;;5113958;28;20445;-56
2022/04/13 08:13:34;;;;;;;9.33;3.60;;;18.60;44.50;;;;;;5113565;28;20449;-55
2022/04/13 08:16:01;;;;;;;4.40;3.07;;;18.70;44.20;;;;;;5112914;28;20441;-55
2022/04/13 08:18:28;;;;;;;4.10;3.57;;;18.70;44.00;;;;;;5109070;28;20484;-57
2022/04/13 08:20:55;;;;;;;4.40;3.10;;;18.70;44.10;;;;;;5111851;28;20446;-53
2022/04/13 08:23:22;;;;;;;6.20;4.53;;;18.60;44.10;;;;;;5113614;28;20441;-55
2022/04/13 08:25:51;;;;;;;14.97;3.93;;;18.40;44.20;;;;;;5114164;28;20472;-55
2022/04/13 08:28:18;;;;;;;5.80;3.37;;;18.40;44.40;;;;;;5112841;28;20449;-55
2022/04/13 08:30:45;;;;;;;8.07;4.23;;;18.60;44.60;;;;;;5113372;28;20521;-54
2022/04/13 08:33:12;;;;;;;5.67;3.90;;;18.80;44.50;;;;;;5113270;28;20448;-54
2022/04/13 08:35:39;;;;;;;5.37;3.27;;;19.10;44.30;;;;;;5126096;28;20445;-55
2022/04/13 08:38:06;;;;;;;4.70;3.60;;;19.30;44.00;;;;;;5133534;28;20436;-55
2022/04/13 08:40:40;;;;;;;6.27;5.43;;;19.40;43.80;;;;;;5133844;28;20215;-54
2022/04/13 08:43:11;;;;;;;5.00;3.77;;;19.50;43.70;;;;;;5132773;28;20452;-55
2022/04/13 08:45:47;;;;;;;8.70;4.40;;;19.60;43.50;;;;;;5133955;28;20954;-54
2022/04/13 08:48:22;;;;;;;5.70;4.43;;;19.70;43.40;;;;;;5133882;28;20429;-55
2022/04/13 08:50:51;;;;;;;4.20;3.40;;;19.80;43.30;;;;;;5129689;27;20499;-54
2022/04/13 08:53:22;;;;;;;3.70;3.07;;;20.00;43.30;;;;;;5112440;28;20453;-53
2022/04/13 08:55:54;;;;;;;3.33;3.03;;;20.20;43.30;;;;;;5115874;28;20427;-55
2022/04/13 08:58:30;;;;;;;6.83;3.13;;;20.40;43.20;;;;;;5116714;28;20428;-55
2022/04/13 09:01:00;;;;;;;4.47;3.60;;;20.60;43.10;;;;;;5116177;28;20471;-53
2022/04/13 09:03:37;;;;;;;6.33;3.40;;;20.60;43.00;;;;;;5116923;28;20442;-55
2022/04/13 09:06:06;;;;;;;7.87;3.40;;;20.70;42.90;;;;;;5116625;28;20820;-54
2022/04/13 09:08:40;;;;;;;5.23;3.70;;;20.90;42.90;;;;;;5116550;28;20455;-53
2022/04/13 09:11:08;;;;;;;7.20;4.07;;;21.00;42.50;;;;;;5117077;28;20438;-53
2022/04/13 09:13:38;;;;;;;4.60;3.30;;;21.00;42.50;;;;;;5115971;28;20446;-54
2022/04/13 09:16:06;;;;;;;5.28;3.50;;;21.00;42.40;;;;;;5116039;28;20438;-54
2022/04/13 09:18:33;;;;;;;7.67;4.47;;;21.10;42.30;;;;;;5118051;28;20650;-56
2022/04/13 09:21:00;;;;;;;8.17;4.27;;;21.20;42.20;;;;;;5106182;22;20494;-55
2022/04/13 09:23:29;;;;;;;5.63;3.90;;;21.30;42.20;;;;;;5076103;28;20478;-56
2022/04/13 09:25:58;;;;;;;5.37;2.80;;;21.40;42.10;;;;;;5075569;28;20441;-55
2022/04/13 09:28:26;;;;;;;4.97;3.00;;;21.60;42.20;;;;;;5076420;28;20448;-55
2022/04/13 09:30:55;;;;;;;6.03;3.10;;;21.70;42.10;;;;;;5083448;28;20485;-56
2022/04/13 09:33:25;;;;;;;4.60;3.57;;;21.80;42.10;;;;;;5085769;28;20455;-56
2022/04/13 09:35:53;;;;;;;6.00;3.65;;;21.80;41.80;;;;;;5083458;28;20469;-56
2022/04/13 09:38:21;;;;;;;4.03;3.07;;;21.80;41.70;;;;;;5066983;28;20203;-54
2022/04/13 09:40:51;;;;;;;5.93;3.80;;;21.80;41.60;;;;;;5069637;28;20461;-55
2022/04/13 09:43:19;;;;;;;6.18;3.03;;;21.80;41.70;;;;;;5084339;28;20332;-55
2022/04/13 09:45:49;;;;;;;6.13;3.67;;;21.90;41.80;;;;;;5082877;28;20202;-56
2022/04/13 09:48:19;;;;;;;14.10;4.03;;;21.90;41.70;;;;;;5079174;28;20997;-58
2022/04/13 09:50:48;;;;;;;7.10;3.63;;;21.90;41.80;;;;;;5059628;28;20502;-58
2022/04/13 09:53:16;;;;;;;4.50;3.30;;;22.00;42.00;;;;;;5066469;28;20453;-55
2022/04/13 09:55:44;;;;;;;6.10;3.90;;;22.10;42.00;;;;;;5081505;28;20932;-57
2022/04/13 09:58:13;;;;;;;3.63;3.20;;;22.10;41.80;;;;;;5061424;28;20454;-58
2022/04/13 10:00:42;;;;;;;5.43;3.37;;;22.20;41.70;;;;;;5056775;28;20468;-58
2022/04/13 10:03:14;;;;;;;7.47;3.63;;;22.20;41.70;;;;;;5056928;28;20451;-58
2022/04/13 10:05:47;;;;;;;7.30;3.57;;;22.00;41.50;;;;;;5055262;28;20447;-59
2022/04/13 10:08:17;;;;;;;4.87;3.70;;;21.90;41.70;;;;;;5056758;28;20437;-58
2022/04/13 10:10:47;;;;;;;6.90;3.60;;;21.90;41.90;;;;;;5055561;28;20490;-59
2022/04/13 10:13:30;;;;;;;6.73;3.53;;;21.80;42.00;;;;;;5056372;28;20443;-59
2022/04/13 10:15:58;;;;;;;6.23;3.17;;;21.80;42.20;;;;;;5056727;28;20485;-59
2022/04/13 10:18:26;;;;;;;6.00;3.67;;;21.90;42.20;;;;;;5055689;28;20455;-59
2022/04/13 10:20:54;;;;;;;7.70;3.30;;;22.00;42.20;;;;;;5055907;28;20480;-59
2022/04/13 10:23:21;;;;;;;5.30;3.07;;;22.10;42.20;;;;;;5056074;28;20452;-58
2022/04/13 10:25:48;;;;;;;6.33;3.40;;;22.20;42.30;;;;;;5057856;28;20788;-59
2022/04/13 10:28:22;;;;;;;6.77;3.80;;;22.30;42.20;;;;;;5058891;28;20451;-59
2022/04/13 10:30:49;;;;;;;4.83;3.27;;;22.50;42.10;;;;;;5059345;28;20489;-59
2022/04/13 10:33:16;;;;;;;10.57;3.70;;;22.70;42.00;;;;;;5059619;28;20447;-59
2022/04/13 10:35:46;;;;;;;6.10;3.20;;;22.80;42.10;;;;;;5059558;28;20464;-59
2022/04/13 10:38:15;;;;;;;6.10;3.50;;;22.80;42.50;;;;;;5058758;28;20569;-59
2022/04/13 10:40:44;;;;;;;6.17;3.80;;;22.80;42.90;;;;;;5057789;28;20465;-60
2022/04/13 10:43:12;;;;;;;5.93;3.30;;;22.80;43.10;;;;;;5056853;28;20443;-60
2022/04/13 10:45:41;;;;;;;7.87;3.43;;;22.80;43.30;;;;;;5056625;28;20464;-58
2022/04/13 10:48:10;;;;;;;7.00;4.30;;;22.80;43.40;;;;;;5053139;28;20456;-59
2022/04/13 10:50:49;;;;;;;8.33;3.80;;;22.80;43.50;;;;;;5055208;28;20493;-58
2022/04/13 10:53:30;;;;;;;7.20;3.30;;;22.80;43.50;;;;;;5053813;28;20432;-59
2022/04/13 10:56:00;;;;;;;7.33;3.73;;;23.00;43.50;;;;;;5052199;28;20437;-60
2022/04/13 10:58:41;;;;;;;8.50;4.03;;;23.20;43.40;;;;;;5053959;28;20449;-59
2022/04/13 11:01:13;;;;;;;7.63;3.40;;;23.30;43.40;;;;;;5054121;28;20463;-56
2022/04/13 11:03:40;;;;;;;6.30;3.77;;;23.30;43.50;;;;;;5053236;28;20912;-59
2022/04/13 11:06:09;;;;;;;7.70;3.63;;;23.30;43.60;;;;;;5053327;28;20826;-59
2022/04/13 11:08:46;;;;;;;8.03;3.80;;;23.40;43.70;;;;;;5052412;28;20464;-59
2022/04/13 11:11:18;;;;;;;5.40;3.93;;;23.60;43.50;;;;;;5053721;28;20489;-57
2022/04/13 11:13:48;;;;;;;7.13;3.87;;;23.90;43.20;;;;;;5053978;28;20464;-60
2022/04/13 11:16:16;;;;;;;3.77;3.27;;;24.00;43.10;;;;;;5053507;28;20482;-57
2022/04/13 11:18:44;;;;;;;6.50;3.40;;;24.10;42.80;;;;;;5052315;28;20454;-59
2022/04/13 11:21:11;;;;;;;7.40;3.50;;;24.10;42.70;;;;;;5052837;28;20843;-59
2022/04/13 11:23:51;;;;;;;7.17;4.13;;;24.00;42.80;;;;;;5053146;28;20938;-58
2022/04/13 11:26:26;;;;;;;8.77;3.57;;;23.90;43.00;;;;;;5052693;28;20532;-59
2022/04/13 11:29:16;;;;;;;5.30;3.30;;;23.80;43.10;;;;;;5055161;28;20465;-58
2022/04/13 11:32:12;;;;;;;5.70;3.33;;;23.70;43.10;;;;;;5051250;28;20475;-59
2022/04/13 11:34:44;;;;;;;5.50;3.30;;;23.70;42.90;;;;;;5053277;28;20206;-60
2022/04/13 11:37:13;;;;;;;8.20;3.10;;;23.80;43.00;;;;;;5052723;28;20438;-58
2022/04/13 11:39:50;;;;;;;7.83;2.70;;;23.90;43.10;;;;;;5052414;28;20541;-57
2022/04/13 11:42:33;;;;;;;6.90;3.70;;;24.10;42.80;;;;;;5052999;28;21003;-58
2022/04/13 11:45:03;;;;;;;6.27;3.30;;;24.40;42.60;;;;;;5044881;28;20447;-58
2022/04/13 11:47:37;;;;;;;6.27;3.07;;;24.60;42.10;;;;;;5061440;28;20564;-59
2022/04/13 11:50:19;;;;;;;9.07;4.17;;;24.90;41.70;;;;;;5055514;28;21051;-58
2022/04/13 11:52:51;;;;;;;6.90;2.67;;;25.10;41.30;;;;;;5053059;28;20439;-56
2022/04/13 11:55:21;;;;;;;7.27;3.30;;;25.50;40.70;;;;;;5053756;28;20432;-57
2022/04/13 11:58:25;;;;;;;6.27;3.13;;;25.90;40.00;;;;;;5053919;28;20428;-58
2022/04/13 12:01:03;;;;;;;7.57;3.10;;;26.30;39.60;;;;;;5054258;28;20464;-57
2022/04/13 12:03:32;;;;;;;7.50;3.40;;;26.40;39.00;;;;;;5054133;28;20439;-58
2022/04/13 12:06:01;;;;;;;5.47;3.13;;;26.40;39.50;;;;;;5054755;28;20436;-57
2022/04/13 12:08:31;;;;;;;6.37;2.87;;;26.60;38.80;;;;;;5053428;28;20448;-57
2022/04/13 12:11:01;;;;;;;6.50;3.30;;;26.80;38.60;;;;;;5055006;28;20484;-57
2022/04/13 12:13:32;;;;;;;6.00;3.10;;;27.00;38.30;;;;;;5054869;28;20436;-57
2022/04/13 12:16:00;;;;;;;11.33;3.43;;;27.20;38.10;;;;;;5054956;28;20461;-59
2022/04/13 12:18:29;;;;;;;7.80;3.17;;;27.20;37.90;;;;;;5051722;28;20475;-57
2022/04/13 12:21:10;;;;;;;4.90;2.80;;;27.10;38.10;;;;;;5052247;28;20484;-58
2022/04/13 12:23:37;;;;;;;5.80;3.10;;;26.80;38.20;;;;;;5052527;28;20523;-57
2022/04/13 12:26:07;;;;;;;11.17;3.60;;;26.40;38.80;;;;;;5051826;28;20453;-59
2022/04/13 12:28:34;;;;;;;7.90;3.30;;;26.10;39.20;;;;;;5052538;28;20475;-58
2022/04/13 12:31:03;;;;;;;7.67;3.10;;;25.90;39.40;;;;;;5055652;28;20515;-59
2022/04/13 12:33:31;;;;;;;5.70;3.10;;;25.80;39.60;;;;;;5056761;28;20443;-58
2022/04/13 12:36:00;;;;;;;6.43;2.50;;;25.60;39.70;;;;;;5056860;28;20446;-59
2022/04/13 12:38:29;;;;;;;6.93;2.57;;;25.50;39.80;;;;;;5055629;28;20467;-59
2022/04/13 12:41:24;;;;;;;10.30;2.73;;;25.50;39.90;;;;;;5056474;28;20463;-59
2022/04/13 12:43:54;;;;;;;4.77;2.40;;;25.50;39.80;;;;;;5056559;28;20812;-57
2022/04/13 12:46:22;;;;;;;4.03;2.90;;;25.50;39.80;;;;;;5056765;28;20468;-60
2022/04/13 12:48:51;;;;;;;8.80;2.63;;;25.40;39.80;;;;;;5055637;28;20444;-60
2022/04/13 12:51:19;;;;;;;6.83;2.90;;;25.40;39.80;;;;;;5056351;28;20483;-58
2022/04/13 12:53:53;;;;;;;4.40;2.10;;;25.40;40.00;;;;;;5056551;28;20967;-59
2022/04/13 12:56:24;;;;;;;9.10;2.93;;;25.30;39.80;;;;;;5056891;28;20976;-58
2022/04/13 12:58:52;;;;;;;6.70;3.17;;;25.10;39.60;;;;;;5057425;28;20445;-59
2022/04/13 13:01:33;;;;;;;9.07;2.87;;;25.00;39.70;;;;;;5056905;28;20463;-58